createdAt,value
2018-03-02T00:01:35.685Z,31.60
2018-03-02T00:04:03.964Z,34.03
2018-03-02T00:06:32.240Z,24.73
2018-03-02T00:09:00.508Z,22.03
2018-03-02T00:11:28.015Z,28.73
2018-03-02T00:13:55.575Z,26.40
2018-03-02T00:16:23.344Z,26.63
2018-03-02T00:18:50.715Z,27.13
2018-03-02T00:21:18.216Z,39.30
2018-03-02T00:23:46.454Z,40.03
2018-03-02T00:26:14.084Z,29.20
2018-03-02T00:28:41.816Z,30.80
2018-03-02T00:31:09.359Z,41.80
2018-03-02T00:33:37.092Z,21.03
2018-03-02T00:36:04.672Z,39.70
2018-03-02T00:38:32.335Z,49.63
2018-03-02T00:41:00.103Z,31.63
2018-03-02T00:43:27.572Z,34.70
2018-03-02T00:45:55.876Z,34.83
2018-03-02T00:48:24.275Z,34.10
2018-03-02T00:50:51.978Z,32.90
2018-03-02T00:53:19.494Z,32.47
2018-03-02T00:55:47.006Z,27.37
2018-03-02T00:58:14.511Z,33.73
2018-03-02T01:00:42.010Z,31.33
2018-03-02T01:03:09.874Z,23.50
2018-03-02T01:05:37.405Z,37.47
2018-03-02T01:08:05.220Z,33.77
2018-03-02T01:10:32.710Z,32.43
2018-03-02T01:13:00.187Z,35.57
2018-03-02T01:15:27.675Z,23.40
2018-03-02T01:17:55.285Z,31.30
2018-03-02T01:20:22.759Z,28.43
2018-03-02T01:22:50.288Z,21.83
2018-03-02T01:25:18.682Z,26.17
2018-03-02T01:27:46.420Z,33.00
2018-03-02T01:30:14.267Z,24.93
2018-03-02T01:32:41.768Z,29.10
2018-03-02T01:35:09.281Z,35.30
2018-03-02T01:37:36.897Z,28.27
2018-03-02T01:40:04.438Z,38.93
2018-03-02T01:42:32.711Z,37.57
2018-03-02T01:45:00.206Z,28.27
2018-03-02T01:47:27.886Z,38.03
2018-03-02T01:49:55.412Z,24.93
2018-03-02T01:52:23.675Z,34.43
2018-03-02T01:54:51.201Z,19.80
2018-03-02T01:57:18.725Z,32.63
2018-03-02T01:59:46.364Z,37.63
2018-03-02T02:02:13.999Z,31.77
2018-03-02T02:04:41.497Z,33.97
2018-03-02T02:07:09.034Z,30.70
2018-03-02T02:09:37.312Z,28.00
2018-03-02T02:12:05.695Z,32.20
2018-03-02T02:14:34.341Z,26.80
2018-03-02T02:17:01.847Z,18.33
2018-03-02T02:19:29.493Z,29.43
2018-03-02T02:21:57.781Z,28.83
2018-03-02T02:24:25.724Z,25.03
2018-03-02T02:26:53.211Z,27.87
2018-03-02T02:29:20.690Z,28.00
2018-03-02T02:31:48.360Z,29.93
2018-03-02T02:34:15.845Z,26.83
2018-03-02T02:36:43.395Z,35.30
2018-03-02T02:39:10.904Z,20.50
2018-03-02T02:41:39.592Z,30.33
2018-03-02T02:44:07.073Z,20.53
2018-03-02T02:46:34.590Z,35.50
2018-03-02T02:49:02.118Z,31.30
2018-03-02T02:51:29.687Z,39.33
2018-03-02T02:53:57.169Z,37.13
2018-03-02T02:56:25.455Z,34.43
2018-03-02T02:58:53.007Z,25.07
2018-03-02T03:01:21.585Z,32.63
2018-03-02T03:03:49.068Z,32.43
2018-03-02T03:06:17.301Z,34.07
2018-03-02T03:08:44.944Z,18.60
2018-03-02T03:11:12.543Z,38.40
2018-03-02T03:13:40.067Z,37.70
2018-03-02T03:16:07.556Z,22.57
2018-03-02T03:18:35.027Z,35.77
2018-03-02T03:21:02.548Z,20.93
2018-03-02T03:23:31.000Z,28.80
2018-03-02T03:25:58.487Z,30.47
2018-03-02T03:28:26.030Z,30.33
2018-03-02T03:30:53.538Z,35.57
2018-03-02T03:33:21.189Z,30.33
2018-03-02T03:35:48.703Z,37.87
2018-03-02T03:38:16.229Z,36.77
2018-03-02T03:40:44.531Z,29.47
2018-03-02T03:43:12.647Z,20.17
2018-03-02T03:45:40.117Z,37.90
2018-03-02T03:48:08.388Z,23.40
2018-03-02T03:50:35.950Z,15.53
2018-03-02T03:53:04.303Z,34.70
2018-03-02T03:55:31.791Z,27.13
2018-03-02T03:57:59.383Z,23.97
2018-03-02T04:00:26.904Z,33.47
2018-03-02T04:02:54.421Z,28.30
2018-03-02T04:05:22.126Z,24.77
2018-03-02T04:07:49.652Z,43.30
2018-03-02T04:10:17.284Z,37.47
2018-03-02T04:12:44.760Z,30.97
2018-03-02T04:15:12.254Z,28.50
2018-03-02T04:17:39.938Z,30.23
2018-03-02T04:20:07.397Z,39.07
2018-03-02T04:22:35.001Z,26.87
2018-03-02T04:25:02.497Z,37.73
2018-03-02T04:27:30.809Z,35.27
2018-03-02T04:29:59.128Z,27.20
2018-03-02T04:32:26.656Z,31.30
2018-03-02T04:34:54.890Z,27.80
2018-03-02T04:37:22.381Z,34.43
2018-03-02T04:39:49.901Z,29.67
2018-03-02T04:42:17.356Z,31.00
2018-03-02T04:44:46.251Z,36.83
2018-03-02T04:47:14.013Z,20.60
2018-03-02T04:49:41.548Z,41.53
2018-03-02T04:52:09.204Z,38.00
2018-03-02T04:54:36.692Z,29.67
2018-03-02T04:57:04.368Z,30.93
2018-03-02T04:59:33.212Z,23.40
2018-03-02T05:02:00.728Z,28.40
2018-03-02T05:04:28.377Z,43.30
2018-03-02T05:06:56.643Z,32.47
2018-03-02T05:09:24.172Z,30.13
2018-03-02T05:11:51.801Z,41.83
2018-03-02T05:14:20.080Z,37.60
2018-03-02T05:16:48.387Z,19.93
2018-03-02T05:19:15.919Z,52.03
2018-03-02T05:21:44.243Z,33.93
2018-03-02T05:24:11.751Z,25.50
2018-03-02T05:26:40.089Z,40.67
2018-03-02T05:29:07.800Z,38.67
2018-03-02T05:31:36.064Z,35.27
2018-03-02T05:34:04.430Z,35.97
2018-03-02T05:36:32.939Z,29.20
2018-03-02T05:39:01.234Z,29.87
2018-03-02T05:41:28.719Z,38.53
2018-03-02T05:43:56.202Z,32.67
2018-03-02T05:46:23.696Z,23.33
2018-03-02T05:48:51.285Z,22.23
2018-03-02T05:51:18.798Z,39.77
2018-03-02T05:53:47.046Z,41.77
2018-03-02T05:56:14.541Z,36.27
2018-03-02T05:58:42.146Z,43.63
2018-03-02T06:01:09.612Z,33.40
2018-03-02T06:03:38.098Z,33.97
2018-03-02T06:06:05.586Z,40.20
2018-03-02T06:08:34.343Z,45.37
2018-03-02T06:11:01.842Z,40.17
2018-03-02T06:13:30.229Z,30.60
2018-03-02T06:15:58.540Z,52.97
2018-03-02T06:18:26.034Z,35.70
2018-03-02T06:20:53.559Z,49.63
2018-03-02T06:23:21.071Z,43.87
2018-03-02T06:25:49.345Z,38.53
2018-03-02T06:28:18.141Z,40.00
2018-03-02T06:30:46.372Z,42.40
2018-03-02T06:33:14.870Z,36.27
2018-03-02T06:35:42.383Z,45.40
2018-03-02T06:38:09.875Z,28.40
2018-03-02T06:40:37.481Z,30.73
2018-03-02T06:43:04.999Z,37.00
2018-03-02T06:45:32.489Z,32.00
2018-03-02T06:48:00.752Z,30.67
2018-03-02T06:50:28.308Z,48.67
2018-03-02T06:52:55.974Z,41.47
2018-03-02T06:55:23.461Z,41.33
2018-03-02T06:57:51.381Z,44.90
2018-03-02T07:00:18.945Z,36.40
2018-03-02T07:02:46.447Z,31.70
2018-03-02T07:05:14.128Z,47.03
2018-03-02T07:07:41.615Z,29.67
2018-03-02T07:10:09.110Z,33.43
2018-03-02T07:12:36.759Z,29.93
2018-03-02T07:15:04.252Z,57.63
2018-03-02T07:17:31.900Z,37.40
2018-03-02T07:20:00.151Z,39.30
2018-03-02T07:22:27.626Z,39.10
2018-03-02T07:24:56.008Z,33.30
2018-03-02T07:27:24.272Z,44.27
2018-03-02T07:29:51.891Z,47.23
2018-03-02T07:32:19.551Z,43.77
2018-03-02T07:34:47.126Z,31.47
2018-03-02T07:37:14.686Z,33.80
2018-03-02T07:39:42.188Z,48.33
2018-03-02T07:42:10.529Z,45.00
2018-03-02T07:44:38.003Z,49.17
2018-03-02T07:47:05.479Z,52.33
2018-03-02T07:49:33.832Z,43.60
2018-03-02T07:52:01.420Z,32.00
2018-03-02T07:54:29.705Z,39.83
2018-03-02T07:56:57.952Z,51.60
2018-03-02T07:59:25.473Z,49.03
2018-03-02T08:01:52.976Z,42.80
2018-03-02T08:04:20.502Z,53.30
2018-03-02T08:06:48.099Z,40.73
2018-03-02T08:09:15.575Z,50.90
2018-03-02T08:11:43.880Z,34.63
2018-03-02T08:14:11.343Z,24.73
2018-03-02T08:16:39.417Z,52.63
2018-03-02T08:19:06.894Z,62.57
2018-03-02T08:21:35.450Z,31.67
2018-03-02T08:24:03.303Z,45.00
2018-03-02T08:26:30.909Z,50.60
2018-03-02T08:28:58.408Z,49.10
2018-03-02T08:31:26.747Z,54.03
2018-03-02T08:33:54.237Z,65.70
2018-03-02T08:36:21.762Z,48.73
2018-03-02T08:38:49.243Z,49.10
2018-03-02T08:41:16.769Z,39.47
2018-03-02T08:43:44.264Z,53.77
2018-03-02T08:46:11.976Z,38.83
2018-03-02T08:48:39.514Z,38.33
2018-03-02T08:51:07.763Z,41.23
2018-03-02T08:53:36.061Z,54.43
2018-03-02T08:56:04.288Z,60.17
2018-03-02T08:58:31.923Z,70.27
2018-03-02T09:00:59.406Z,38.90
2018-03-02T09:03:26.904Z,52.27
2018-03-02T09:05:55.231Z,66.07
2018-03-02T09:08:22.740Z,49.17
2018-03-02T09:10:51.054Z,63.13
2018-03-02T09:13:18.676Z,56.93
2018-03-02T09:15:47.100Z,44.07
2018-03-02T09:18:14.912Z,57.67
2018-03-02T09:20:42.741Z,65.20
2018-03-02T09:23:10.250Z,49.13
2018-03-02T09:25:38.519Z,59.80
2018-03-02T09:28:06.028Z,59.53
2018-03-02T09:30:33.538Z,55.97
2018-03-02T09:33:01.977Z,51.90
2018-03-02T09:35:29.730Z,60.60
2018-03-02T09:37:57.316Z,54.50
2018-03-02T09:40:24.950Z,60.53
2018-03-02T09:42:52.473Z,61.43
2018-03-02T09:45:20.727Z,58.63
2018-03-02T09:47:48.237Z,51.93
2018-03-02T09:50:15.734Z,65.67
2018-03-02T09:52:43.225Z,67.37
2018-03-02T09:55:11.530Z,41.23
2018-03-02T09:57:39.816Z,69.13
2018-03-02T10:00:08.274Z,55.70
2018-03-02T10:02:35.818Z,58.67
2018-03-02T10:05:04.210Z,54.37
2018-03-02T10:07:32.544Z,52.67
2018-03-02T10:10:01.058Z,54.37
2018-03-02T10:12:28.637Z,54.17
2018-03-02T10:14:56.480Z,60.13
2018-03-02T10:17:24.739Z,53.10
2018-03-02T10:19:52.212Z,42.33
2018-03-02T10:22:20.508Z,62.50
2018-03-02T10:24:48.823Z,67.37
2018-03-02T10:27:16.367Z,52.30
2018-03-02T10:29:43.845Z,37.50
2018-03-02T10:32:12.280Z,38.20
2018-03-02T10:34:40.520Z,50.87
2018-03-02T10:37:08.004Z,54.13
2018-03-02T10:39:36.344Z,50.27
2018-03-02T10:42:03.854Z,51.03
2018-03-02T10:44:32.376Z,55.60
2018-03-02T10:46:59.998Z,62.53
2018-03-02T10:49:28.223Z,55.33
2018-03-02T10:51:55.889Z,58.33
2018-03-02T10:54:23.388Z,61.13
2018-03-02T10:56:51.652Z,57.57
2018-03-02T10:59:19.196Z,52.07
2018-03-02T11:01:52.289Z,61.37
2018-03-02T11:04:19.768Z,57.80
2018-03-02T11:06:48.099Z,50.53
2018-03-02T11:09:15.572Z,62.40
2018-03-02T11:11:43.137Z,42.47
2018-03-02T11:14:10.861Z,38.07
2018-03-02T11:16:39.679Z,57.47
2018-03-02T11:19:07.178Z,56.57
2018-03-02T11:21:35.423Z,55.00
2018-03-02T11:24:02.946Z,40.53
2018-03-02T11:26:30.583Z,56.83
2018-03-02T11:28:59.014Z,40.03
2018-03-02T11:31:26.477Z,52.63
2018-03-02T11:33:54.877Z,50.27
2018-03-02T11:36:22.532Z,53.03
2018-03-02T11:38:50.314Z,51.50
2018-03-02T11:41:18.041Z,46.20
2018-03-02T11:43:45.497Z,55.10
2018-03-02T11:46:13.099Z,38.03
2018-03-02T11:48:41.379Z,44.80
2018-03-02T11:51:09.753Z,55.13
2018-03-02T11:53:38.028Z,52.53
2018-03-02T11:56:05.591Z,51.50
2018-03-02T11:58:33.865Z,35.30
2018-03-02T12:01:01.376Z,54.57
2018-03-02T12:03:29.142Z,53.33
2018-03-02T12:05:56.638Z,56.43
2018-03-02T12:08:24.117Z,58.30
2018-03-02T12:10:52.356Z,44.83
2018-03-02T12:13:19.877Z,48.87
2018-03-02T12:15:47.613Z,50.50
2018-03-02T12:18:15.311Z,57.47
2018-03-02T12:20:42.881Z,53.63
2018-03-02T12:23:10.348Z,56.60
2018-03-02T12:25:38.861Z,49.03
2018-03-02T12:28:06.352Z,59.37
2018-03-02T12:30:34.656Z,53.03
2018-03-02T12:33:02.986Z,43.87
2018-03-02T12:35:31.358Z,49.03
2018-03-02T12:37:58.961Z,59.07
2018-03-02T12:40:26.588Z,62.07
2018-03-02T12:42:54.126Z,54.50
2018-03-02T12:45:21.665Z,51.30
2018-03-02T12:47:49.168Z,69.87
2018-03-02T12:50:16.805Z,42.17
2018-03-02T12:52:44.320Z,56.70
2018-03-02T12:55:11.892Z,54.90
2018-03-02T12:57:39.464Z,56.67
2018-03-02T13:00:06.932Z,61.10
2018-03-02T13:02:34.607Z,59.20
2018-03-02T13:05:02.955Z,57.50
2018-03-02T13:07:30.431Z,47.73
2018-03-02T13:09:58.094Z,41.80
2018-03-02T13:12:25.574Z,48.73
2018-03-02T13:14:53.080Z,54.50
2018-03-02T13:17:20.661Z,58.17
2018-03-02T13:19:48.258Z,55.30
2018-03-02T13:22:27.443Z,54.90
2018-03-02T13:24:54.993Z,57.47
2018-03-02T13:27:34.063Z,42.10
2018-03-02T13:30:01.737Z,49.03
2018-03-02T13:32:29.227Z,56.60
2018-03-02T13:35:06.674Z,43.00
2018-03-02T13:37:34.170Z,48.27
2018-03-02T13:40:14.299Z,60.67
2018-03-02T13:42:41.933Z,62.13
2018-03-02T13:45:09.390Z,56.60
2018-03-02T13:50:36.788Z,56.60
2018-03-02T13:53:04.272Z,60.30
2018-03-02T13:55:32.609Z,56.27
2018-03-02T13:58:03.717Z,47.30
2018-03-02T14:00:31.268Z,55.17
2018-03-02T14:03:10.891Z,60.60
2018-03-02T14:05:39.125Z,52.10
2018-03-02T14:08:06.623Z,56.43
2018-03-02T14:10:35.111Z,53.87
2018-03-02T14:13:03.369Z,43.60
2018-03-02T14:15:31.092Z,55.00
2018-03-02T14:17:58.609Z,47.23
2018-03-02T14:20:26.861Z,58.37
2018-03-02T14:22:54.583Z,55.50
2018-03-02T14:25:22.051Z,50.20
2018-03-02T14:27:49.518Z,57.53
2018-03-02T14:30:17.235Z,43.73
2018-03-02T14:32:45.498Z,75.77
2018-03-02T14:35:13.097Z,51.33
2018-03-02T14:37:40.571Z,54.70
2018-03-02T14:40:08.041Z,52.67
2018-03-02T14:42:35.586Z,48.10
2018-03-02T14:45:03.059Z,55.13
2018-03-02T14:47:30.650Z,50.03
2018-03-02T14:49:58.178Z,33.07
2018-03-02T14:52:26.450Z,39.93
2018-03-02T14:54:53.997Z,48.30
2018-03-02T14:57:21.480Z,55.00
2018-03-02T14:59:49.859Z,52.00
2018-03-02T15:02:17.388Z,45.00
2018-03-02T15:04:44.900Z,56.00
2018-03-02T15:07:12.372Z,62.80
2018-03-02T15:09:41.014Z,42.27
2018-03-02T15:12:08.648Z,62.07
2018-03-02T15:14:36.160Z,51.63
2018-03-02T15:17:03.681Z,57.63
2018-03-02T15:19:31.151Z,53.70
2018-03-02T15:21:58.726Z,53.50
2018-03-02T15:24:26.242Z,55.27
2018-03-02T15:26:54.015Z,55.63
2018-03-02T15:29:21.566Z,57.77
2018-03-02T15:31:49.232Z,62.23
2018-03-02T15:34:16.737Z,64.23
2018-03-02T15:36:44.302Z,57.77
2018-03-02T15:39:11.805Z,58.93
2018-03-02T15:41:39.332Z,59.20
2018-03-02T15:44:07.706Z,58.27
2018-03-02T15:46:35.346Z,55.00
2018-03-02T15:49:02.821Z,59.80
2018-03-02T15:51:30.413Z,66.67
2018-03-02T15:53:57.925Z,61.63
2018-03-02T15:56:25.756Z,65.10
2018-03-02T15:58:53.232Z,68.00
2018-03-02T16:01:20.919Z,56.87
2018-03-02T16:03:49.237Z,59.60
2018-03-02T16:06:17.484Z,65.10
2018-03-02T16:08:45.813Z,68.43
2018-03-02T16:11:13.459Z,60.90
2018-03-02T16:13:40.929Z,61.90
2018-03-02T16:16:08.446Z,61.47
2018-03-02T16:18:36.777Z,58.00
2018-03-02T16:21:04.244Z,67.07
2018-03-02T16:23:31.915Z,49.47
2018-03-02T16:25:59.390Z,52.67
2018-03-02T16:28:26.884Z,61.80
2018-03-02T16:30:54.456Z,60.67
2018-03-02T16:33:21.946Z,63.53
2018-03-02T16:35:49.555Z,67.27
2018-03-02T16:38:17.216Z,54.27
2018-03-02T16:40:45.561Z,60.10
2018-03-02T16:43:13.246Z,57.77
2018-03-02T16:45:41.536Z,75.20
2018-03-02T16:48:09.789Z,62.17
2018-03-02T16:50:37.450Z,62.97
2018-03-02T16:53:04.953Z,66.97
2018-03-02T16:55:32.621Z,67.43
2018-03-02T16:58:00.147Z,65.13
2018-03-02T17:00:28.462Z,61.30
2018-03-02T17:02:56.789Z,68.67
2018-03-02T17:05:24.631Z,63.53
2018-03-02T17:07:52.160Z,67.37
2018-03-02T17:10:19.701Z,65.30
2018-03-02T17:12:47.932Z,80.70
2018-03-02T17:15:15.510Z,78.17
2018-03-02T17:17:42.996Z,71.43
2018-03-02T17:20:11.253Z,60.17
2018-03-02T17:22:39.589Z,69.10
2018-03-02T17:25:07.318Z,67.83
2018-03-02T17:27:34.876Z,73.73
2018-03-02T17:30:03.537Z,70.97
2018-03-02T17:32:31.808Z,51.53
2018-03-02T17:34:59.291Z,81.23
2018-03-02T17:37:27.653Z,72.60
2018-03-02T17:39:55.895Z,75.90
2018-03-02T17:42:23.596Z,71.00
2018-03-02T17:44:51.930Z,67.77
2018-03-02T17:47:19.453Z,72.37
2018-03-02T17:49:46.995Z,74.70
2018-03-02T17:52:15.315Z,82.00
2018-03-02T17:54:42.839Z,71.97
2018-03-02T17:57:10.558Z,80.03
2018-03-02T17:59:38.067Z,75.27
2018-03-02T18:02:05.657Z,83.17
2018-03-02T18:04:33.122Z,72.90
2018-03-02T18:07:00.629Z,67.90
2018-03-02T18:09:28.588Z,84.40
2018-03-02T18:11:56.118Z,67.10
2018-03-02T18:14:23.732Z,83.57
2018-03-02T18:16:51.803Z,73.83
2018-03-02T18:19:20.384Z,77.43
2018-03-02T18:21:48.147Z,81.60
2018-03-02T18:24:16.420Z,78.50
2018-03-02T18:26:44.042Z,73.20
2018-03-02T18:31:50.932Z,68.20
2018-03-02T18:34:18.431Z,79.97
2018-03-02T18:36:46.706Z,72.27
2018-03-02T18:39:14.214Z,77.13
2018-03-02T18:41:41.770Z,59.23
2018-03-02T18:44:09.643Z,78.33
2018-03-02T18:46:37.159Z,70.93
2018-03-02T18:49:04.693Z,69.93
2018-03-02T18:51:32.171Z,84.13
2018-03-02T18:54:00.460Z,68.40
2018-03-02T18:56:28.726Z,70.53
2018-03-02T18:58:57.109Z,73.47
2018-03-02T19:01:25.385Z,74.50
2018-03-02T19:03:53.120Z,88.00
2018-03-02T19:06:20.803Z,60.70
2018-03-02T19:08:49.080Z,73.10
2018-03-02T19:11:17.352Z,81.20
2018-03-02T19:13:44.919Z,79.23
2018-03-02T19:16:13.162Z,81.90
2018-03-02T19:18:40.690Z,88.97
2018-03-02T19:21:08.215Z,69.93
2018-03-02T19:23:36.660Z,85.43
2018-03-02T19:26:04.210Z,77.20
2018-03-02T19:28:31.757Z,73.43
2018-03-02T19:30:59.491Z,78.10
2018-03-02T19:33:28.151Z,85.43
2018-03-02T19:35:56.558Z,73.27
2018-03-02T19:38:24.151Z,87.30
2018-03-02T19:40:51.782Z,78.33
2018-03-02T19:43:19.883Z,82.60
2018-03-02T19:45:47.562Z,74.97
2018-03-02T19:48:15.206Z,66.57
2018-03-02T19:50:42.814Z,80.57
2018-03-02T19:53:10.389Z,68.90
2018-03-02T19:55:38.017Z,76.87
2018-03-02T19:58:05.645Z,67.80
2018-03-02T20:00:33.284Z,70.70
2018-03-02T20:03:00.845Z,75.87
2018-03-02T20:05:29.121Z,76.27
2018-03-02T20:07:56.745Z,85.33
2018-03-02T20:10:24.542Z,74.87
2018-03-02T20:12:52.816Z,67.97
2018-03-02T20:15:20.869Z,75.40
2018-03-02T20:17:49.269Z,80.17
2018-03-02T20:20:17.539Z,78.60
2018-03-02T20:22:45.826Z,75.23
2018-03-02T20:25:13.571Z,84.73
2018-03-02T20:27:41.059Z,71.07
2018-03-02T20:30:08.580Z,72.07
2018-03-02T20:32:36.138Z,76.67
2018-03-02T20:35:03.748Z,79.13
2018-03-02T20:37:31.281Z,73.53
2018-03-02T20:39:59.647Z,80.23
2018-03-02T20:42:27.936Z,66.30
2018-03-02T20:44:55.460Z,72.43
2018-03-02T20:47:23.086Z,77.33
2018-03-02T20:49:50.631Z,76.67
2018-03-02T20:52:18.884Z,67.40
2018-03-02T20:54:46.431Z,74.57
2018-03-02T20:57:14.014Z,77.30
2018-03-02T20:59:41.621Z,68.47
2018-03-02T21:02:09.334Z,74.97
2018-03-02T21:04:37.096Z,77.30
2018-03-02T21:07:04.622Z,67.27
2018-03-02T21:09:32.125Z,76.60
2018-03-02T21:12:00.422Z,74.77
2018-03-02T21:14:27.910Z,75.53
2018-03-02T21:16:55.454Z,74.47
2018-03-02T21:19:23.863Z,69.77
2018-03-02T21:21:51.513Z,83.63
2018-03-02T21:24:19.217Z,79.03
2018-03-02T21:26:47.048Z,77.93
2018-03-02T21:29:14.903Z,71.60
2018-03-02T21:31:42.520Z,78.87
2018-03-02T21:34:10.412Z,68.60
2018-03-02T21:36:37.899Z,68.90
2018-03-02T21:39:05.614Z,72.97
2018-03-02T21:41:33.850Z,67.07
2018-03-02T21:44:01.680Z,81.17
2018-03-02T21:46:29.503Z,78.20
2018-03-02T21:48:57.065Z,88.23
2018-03-02T21:51:24.561Z,82.90
2018-03-02T21:53:52.048Z,71.87
2018-03-02T21:56:19.556Z,67.93
2018-03-02T21:58:47.821Z,73.23
2018-03-02T22:01:16.111Z,65.80
2018-03-02T22:03:44.387Z,74.73
2018-03-02T22:06:12.644Z,75.13
2018-03-02T22:08:40.998Z,71.13
2018-03-02T22:11:08.514Z,80.60
2018-03-02T22:13:36.771Z,79.43
2018-03-02T22:16:05.176Z,78.73
2018-03-02T22:18:32.925Z,73.57
2018-03-02T22:21:01.295Z,68.20
2018-03-02T22:23:28.885Z,78.87
2018-03-02T22:25:56.395Z,80.80
2018-03-02T22:28:23.888Z,79.40
2018-03-02T22:30:51.480Z,80.37
2018-03-02T22:33:19.057Z,72.33
2018-03-02T22:35:46.654Z,84.30
2018-03-02T22:38:14.921Z,73.53
2018-03-02T22:40:42.521Z,83.97
2018-03-02T22:43:10.121Z,81.60
2018-03-02T22:45:37.574Z,79.97
2018-03-02T22:48:05.083Z,89.60
2018-03-02T22:50:32.618Z,93.10
2018-03-02T22:53:00.096Z,90.57
2018-03-02T22:55:27.844Z,80.57
2018-03-02T22:57:56.244Z,88.17
2018-03-02T23:00:24.519Z,83.33
2018-03-02T23:02:52.120Z,81.93
2018-03-02T23:05:19.618Z,79.20
2018-03-02T23:07:48.115Z,85.53
2018-03-02T23:10:16.396Z,86.47
2018-03-02T23:12:43.880Z,82.73
2018-03-02T23:15:11.364Z,85.70
2018-03-02T23:17:38.926Z,87.43
2018-03-02T23:20:06.463Z,76.47
2018-03-02T23:22:34.100Z,80.10
2018-03-02T23:25:01.624Z,84.67
2018-03-02T23:27:29.183Z,80.17
2018-03-02T23:29:56.771Z,98.80
2018-03-02T23:32:25.301Z,86.03
2018-03-02T23:34:52.986Z,86.37
2018-03-02T23:37:21.243Z,85.07
2018-03-02T23:39:48.856Z,87.40
2018-03-02T23:42:16.408Z,86.23
2018-03-02T23:44:44.312Z,90.47
2018-03-02T23:47:11.778Z,101.10
2018-03-02T23:49:39.391Z,104.60
2018-03-02T23:52:07.773Z,88.20
2018-03-02T23:54:36.057Z,84.70
2018-03-02T23:57:04.237Z,88.53
2018-03-02T23:59:32.577Z,88.43
